Time;durP1;ratioP1;P1;durP2;ratioP2;P2;SDS_P1;SDS_P2;PMS_P1;PMS_P2;Temp;Humidity;BMP_temperature;BMP_pressure;BME280_temperature;BME280_humidity;BME280_pressure;Samples;Min_cycle;Max_cycle;Signal;HPM_P1;HPM_P2
2021/05/31 00:00:17;;;;;;;15.67;10.47;;;13.80;99.90;;;;;;5259986;27;20143;-66
2021/05/31 00:02:45;;;;;;;15.80;10.30;;;13.80;99.90;;;;;;5260867;27;20111;-65
2021/05/31 00:05:12;;;;;;;16.60;11.00;;;13.70;99.90;;;;;;5260940;27;20151;-63
2021/05/31 00:07:38;;;;;;;14.10;9.83;;;13.70;99.90;;;;;;5260745;27;20110;-65
2021/05/31 00:10:07;;;;;;;15.53;10.37;;;13.70;99.90;;;;;;5260949;27;20428;-65
2021/05/31 00:12:33;;;;;;;19.70;11.23;;;13.60;99.90;;;;;;5261139;27;20454;-63
2021/05/31 00:14:59;;;;;;;14.40;11.37;;;13.60;99.90;;;;;;5262561;27;20140;-64
2021/05/31 00:17:27;;;;;;;14.50;11.37;;;13.50;99.90;;;;;;5261892;27;20157;-63
2021/05/31 00:19:54;;;;;;;15.43;10.53;;;13.40;99.90;;;;;;5260692;27;20107;-64
2021/05/31 00:22:21;;;;;;;15.93;11.10;;;13.40;99.90;;;;;;5260686;27;20433;-66
2021/05/31 00:24:48;;;;;;;14.13;10.93;;;13.40;99.90;;;;;;5261093;27;20159;-64
2021/05/31 00:27:15;;;;;;;16.03;11.00;;;13.40;99.90;;;;;;5262018;27;20107;-64
2021/05/31 00:29:42;;;;;;;15.47;11.10;;;13.30;99.90;;;;;;5260262;27;20115;-66
2021/05/31 00:32:09;;;;;;;15.37;10.83;;;13.30;99.90;;;;;;5260827;27;20103;-63
2021/05/31 00:34:37;;;;;;;14.77;10.87;;;13.30;99.90;;;;;;5259318;27;20119;-64
2021/05/31 00:37:03;;;;;;;18.43;11.33;;;13.30;99.90;;;;;;5260022;27;20150;-64
2021/05/31 00:39:30;;;;;;;17.33;12.40;;;13.20;99.90;;;;;;5261612;27;20169;-64
2021/05/31 00:41:56;;;;;;;18.17;10.63;;;13.20;99.90;;;;;;5261051;27;20530;-63
2021/05/31 00:44:24;;;;;;;13.53;10.83;;;13.20;99.90;;;;;;5260261;27;20172;-64
2021/05/31 00:46:52;;;;;;;16.17;10.47;;;13.20;99.90;;;;;;5260370;27;20123;-65
2021/05/31 00:49:20;;;;;;;13.07;10.50;;;13.10;99.90;;;;;;5260057;27;20494;-65
2021/05/31 00:51:47;;;;;;;15.80;11.33;;;13.10;99.90;;;;;;5260212;27;20522;-63
2021/05/31 00:54:14;;;;;;;17.93;12.13;;;13.10;99.90;;;;;;5260162;27;20111;-63
2021/05/31 00:56:42;;;;;;;16.80;11.67;;;13.10;99.90;;;;;;5260477;27;20543;-64
2021/05/31 00:59:09;;;;;;;16.00;11.00;;;13.00;99.90;;;;;;5261427;27;20502;-65
2021/05/31 01:01:36;;;;;;;15.90;10.43;;;13.00;99.90;;;;;;5260458;27;20126;-65
2021/05/31 01:04:02;;;;;;;17.43;11.60;;;13.00;99.90;;;;;;5260963;27;20128;-63
2021/05/31 01:06:34;;;;;;;16.17;12.00;;;13.00;99.90;;;;;;5260602;27;20115;-66
2021/05/31 01:09:09;;;;;;;17.73;11.70;;;13.00;99.90;;;;;;5261578;27;20104;-63
2021/05/31 01:11:47;;;;;;;18.30;11.33;;;13.00;99.90;;;;;;5260506;27;20123;-64
2021/05/31 01:14:20;;;;;;;14.93;11.63;;;13.00;99.90;;;;;;5261622;27;20153;-65
2021/05/31 01:16:52;;;;;;;15.23;10.97;;;13.00;99.90;;;;;;5260439;27;20107;-64
2021/05/31 01:19:36;;;;;;;19.87;12.23;;;12.90;99.90;;;;;;5260827;27;20121;-65
2021/05/31 01:22:08;;;;;;;19.07;12.70;;;12.90;99.90;;;;;;5260222;27;20115;-63
2021/05/31 01:24:58;;;;;;;15.13;11.80;;;12.90;99.90;;;;;;5260261;27;20118;-65
2021/05/31 01:27:36;;;;;;;17.23;11.67;;;12.80;99.90;;;;;;5260074;27;20107;-64
2021/05/31 01:30:06;;;;;;;16.60;11.70;;;12.80;99.90;;;;;;5260368;27;20153;-65
2021/05/31 01:32:37;;;;;;;18.83;13.00;;;12.80;99.90;;;;;;5260050;27;20141;-65
2021/05/31 01:35:07;;;;;;;18.93;13.40;;;12.80;99.90;;;;;;5260432;27;20123;-64
2021/05/31 01:37:35;;;;;;;20.37;13.87;;;12.70;99.90;;;;;;5260299;27;20127;-64
2021/05/31 01:40:06;;;;;;;20.53;13.17;;;12.70;99.90;;;;;;5261763;27;20118;-64
2021/05/31 01:42:32;;;;;;;20.80;13.17;;;12.60;99.90;;;;;;5262280;27;20477;-66
2021/05/31 01:45:00;;;;;;;22.37;13.60;;;12.50;99.90;;;;;;5261790;27;20141;-64
2021/05/31 01:47:29;;;;;;;20.17;13.70;;;12.50;99.90;;;;;;5261483;27;20122;-64
2021/05/31 01:49:56;;;;;;;20.03;13.20;;;12.50;99.90;;;;;;5261919;27;20538;-64
2021/05/31 01:52:23;;;;;;;15.47;12.97;;;12.40;99.90;;;;;;5261786;27;20123;-65
2021/05/31 01:54:52;;;;;;;19.27;14.60;;;12.40;99.90;;;;;;5262416;27;20581;-65
2021/05/31 01:57:21;;;;;;;21.00;13.90;;;12.40;99.90;;;;;;5262104;27;20108;-64
2021/05/31 01:59:48;;;;;;;22.37;15.67;;;12.30;99.90;;;;;;5261716;27;20157;-65
2021/05/31 02:02:15;;;;;;;19.63;14.00;;;12.30;99.90;;;;;;5262038;27;20161;-64
2021/05/31 02:04:43;;;;;;;22.07;13.60;;;12.20;99.90;;;;;;5261395;27;20122;-64
2021/05/31 02:07:09;;;;;;;19.67;13.37;;;12.20;99.90;;;;;;5261587;27;20148;-65
2021/05/31 02:09:35;;;;;;;21.77;13.87;;;12.20;99.90;;;;;;5262007;27;20153;-62
2021/05/31 02:12:10;;;;;;;15.67;12.90;;;12.20;99.90;;;;;;5261513;27;20121;-64
2021/05/31 02:14:44;;;;;;;23.90;13.80;;;12.20;99.90;;;;;;5261415;27;20137;-63
2021/05/31 02:17:21;;;;;;;20.90;14.60;;;12.20;99.90;;;;;;5262503;27;20115;-63
2021/05/31 02:19:54;;;;;;;22.77;15.37;;;12.20;99.90;;;;;;5262189;27;20142;-64
2021/05/31 02:22:22;;;;;;;21.97;14.90;;;12.20;99.90;;;;;;5261515;27;20153;-63
2021/05/31 02:24:51;;;;;;;19.10;14.53;;;12.20;99.90;;;;;;5261309;27;20160;-63
2021/05/31 02:27:18;;;;;;;20.47;14.80;;;12.10;99.90;;;;;;5261690;27;20116;-62
2021/05/31 02:29:44;;;;;;;23.13;15.13;;;12.10;99.90;;;;;;5261711;27;20141;-64
2021/05/31 02:32:10;;;;;;;21.27;15.33;;;12.00;99.90;;;;;;5261178;27;20118;-63
2021/05/31 02:34:37;;;;;;;20.57;16.23;;;11.90;99.90;;;;;;5261267;27;20111;-62
2021/05/31 02:37:05;;;;;;;20.20;16.00;;;11.90;99.90;;;;;;5263211;27;20126;-63
2021/05/31 02:39:31;;;;;;;25.10;16.33;;;11.90;99.90;;;;;;5261959;27;20107;-65
2021/05/31 02:41:57;;;;;;;21.93;15.93;;;11.90;99.90;;;;;;5262673;27;20112;-62
2021/05/31 02:44:24;;;;;;;22.40;15.77;;;11.80;99.90;;;;;;5261503;27;20118;-63
2021/05/31 02:46:50;;;;;;;26.97;18.23;;;11.80;99.90;;;;;;5261437;27;20157;-63
2021/05/31 02:49:16;;;;;;;24.27;17.00;;;11.80;99.90;;;;;;5261352;27;20516;-64
2021/05/31 02:51:44;;;;;;;25.83;16.37;;;11.80;99.90;;;;;;5261123;27;20111;-63
2021/05/31 02:54:12;;;;;;;21.03;16.33;;;11.80;99.90;;;;;;5261254;27;20142;-64
2021/05/31 02:56:39;;;;;;;24.97;16.63;;;11.80;99.90;;;;;;5262186;27;20111;-64
2021/05/31 02:59:06;;;;;;;19.47;15.40;;;11.70;99.90;;;;;;5261396;27;20108;-63
2021/05/31 03:01:32;;;;;;;23.07;15.57;;;11.70;99.90;;;;;;5261353;27;20141;-63
2021/05/31 03:04:01;;;;;;;22.23;16.53;;;11.80;99.90;;;;;;5261139;27;20173;-64
2021/05/31 03:06:28;;;;;;;27.03;17.47;;;11.70;99.90;;;;;;5262458;27;20451;-63
2021/05/31 03:08:54;;;;;;;25.17;16.33;;;11.70;99.90;;;;;;5261633;27;20532;-64
2021/05/31 03:11:22;;;;;;;28.67;17.67;;;11.70;99.90;;;;;;5261185;27;20121;-65
2021/05/31 03:13:48;;;;;;;24.90;16.87;;;11.70;99.90;;;;;;5260799;27;20451;-62
2021/05/31 03:16:14;;;;;;;24.03;16.87;;;11.70;99.90;;;;;;5261000;27;20135;-63
2021/05/31 03:18:41;;;;;;;24.17;17.73;;;11.70;99.90;;;;;;5261328;27;20118;-63
2021/05/31 03:21:08;;;;;;;24.80;16.43;;;11.70;99.90;;;;;;5261782;27;20107;-64
2021/05/31 03:23:34;;;;;;;24.30;17.47;;;11.60;99.90;;;;;;5261075;27;20111;-62
2021/05/31 03:26:03;;;;;;;27.57;16.83;;;11.60;99.90;;;;;;5260606;27;20186;-63
2021/05/31 03:28:31;;;;;;;26.73;18.10;;;11.60;99.90;;;;;;5260435;27;20487;-64
2021/05/31 03:30:57;;;;;;;28.00;18.87;;;11.60;99.90;;;;;;5260966;27;20107;-66
2021/05/31 03:33:24;;;;;;;25.13;17.90;;;11.60;99.90;;;;;;5260994;27;20107;-63
2021/05/31 03:35:50;;;;;;;24.03;17.33;;;11.60;99.90;;;;;;5261537;27;20131;-63
2021/05/31 03:38:16;;;;;;;23.10;17.90;;;11.50;99.90;;;;;;5261180;27;20130;-64
2021/05/31 03:40:43;;;;;;;26.80;18.17;;;11.60;99.90;;;;;;5261994;27;20137;-63
2021/05/31 03:43:09;;;;;;;24.87;17.37;;;11.60;99.90;;;;;;5261005;27;20122;-62
2021/05/31 03:45:37;;;;;;;28.97;18.13;;;11.60;99.90;;;;;;5262022;27;20107;-63
2021/05/31 03:48:03;;;;;;;31.03;18.77;;;11.50;99.90;;;;;;5260937;27;20119;-63
2021/05/31 03:50:31;;;;;;;31.07;19.23;;;11.50;99.90;;;;;;5261950;27;20147;-63
2021/05/31 03:52:57;;;;;;;26.43;17.27;;;11.50;99.90;;;;;;5260636;27;20126;-64
2021/05/31 03:55:24;;;;;;;23.03;17.37;;;11.50;99.90;;;;;;5261296;27;20118;-64
2021/05/31 03:57:50;;;;;;;25.40;17.93;;;11.50;99.90;;;;;;5261413;27;20165;-64
2021/05/31 04:00:17;;;;;;;28.17;18.57;;;11.60;99.90;;;;;;5261414;27;20132;-64
2021/05/31 04:02:45;;;;;;;25.63;18.07;;;11.60;99.90;;;;;;5261391;27;20111;-64
2021/05/31 04:05:14;;;;;;;27.87;17.70;;;11.70;99.90;;;;;;5261101;27;20157;-64
2021/05/31 04:13:17;;;;;;;27.37;17.80;;;11.80;99.90;;;;;;5260454;27;20145;-62
2021/05/31 04:15:44;;;;;;;27.03;18.37;;;11.80;99.90;;;;;;5261368;27;20119;-63
2021/05/31 04:18:12;;;;;;;25.53;17.97;;;11.80;99.90;;;;;;5261560;27;20140;-63
2021/05/31 04:20:39;;;;;;;25.77;18.07;;;11.80;99.90;;;;;;5262272;27;20106;-63
2021/05/31 04:23:07;;;;;;;28.03;18.27;;;11.90;99.90;;;;;;5260798;27;20138;-63
2021/05/31 04:25:34;;;;;;;26.57;18.93;;;11.80;99.90;;;;;;5260181;27;20135;-63
2021/05/31 04:28:02;;;;;;;28.03;20.13;;;11.80;99.90;;;;;;5261089;27;20158;-62
2021/05/31 04:30:29;;;;;;;25.23;17.37;;;11.90;99.90;;;;;;5260516;27;20107;-63
2021/05/31 04:32:55;;;;;;;32.07;19.73;;;11.90;99.90;;;;;;5261109;27;20479;-63
2021/05/31 04:35:23;;;;;;;27.33;18.80;;;12.00;99.90;;;;;;5260752;27;20170;-63
2021/05/31 04:37:51;;;;;;;27.40;18.27;;;12.10;99.90;;;;;;5262509;27;20135;-63
2021/05/31 04:40:17;;;;;;;27.87;19.83;;;12.20;99.90;;;;;;5262871;27;20504;-64
2021/05/31 04:42:43;;;;;;;30.13;19.70;;;12.40;99.90;;;;;;5259816;27;20115;-63
2021/05/31 04:45:10;;;;;;;30.00;19.37;;;12.50;99.90;;;;;;5260839;27;20497;-64
2021/05/31 04:47:36;;;;;;;28.67;18.30;;;12.70;99.90;;;;;;5259964;27;20155;-63
2021/05/31 04:50:03;;;;;;;23.77;17.60;;;12.80;99.90;;;;;;5260555;27;20123;-63
2021/05/31 04:52:31;;;;;;;24.97;16.97;;;12.90;99.90;;;;;;5261109;27;20159;-63
2021/05/31 04:55:01;;;;;;;25.07;18.53;;;13.20;99.90;;;;;;5260217;27;20119;-62
2021/05/31 04:57:27;;;;;;;24.07;18.73;;;13.30;99.90;;;;;;5259793;27;20130;-63
2021/05/31 04:59:53;;;;;;;24.33;17.57;;;13.30;99.90;;;;;;5259090;27;20107;-63
2021/05/31 05:02:20;;;;;;;26.30;18.37;;;13.60;99.90;;;;;;5258516;27;20471;-63
2021/05/31 05:04:46;;;;;;;25.17;17.33;;;14.00;99.90;;;;;;5260886;27;20122;-63
2021/05/31 05:07:22;;;;;;;29.40;18.63;;;14.50;99.90;;;;;;5261006;27;20115;-62
2021/05/31 05:09:54;;;;;;;21.97;16.67;;;14.80;99.90;;;;;;5260522;27;20182;-64
2021/05/31 05:12:21;;;;;;;28.03;18.77;;;14.70;99.90;;;;;;5260525;27;20531;-63
2021/05/31 05:14:47;;;;;;;23.93;17.10;;;14.60;99.90;;;;;;5259794;27;20188;-63
2021/05/31 05:17:14;;;;;;;26.67;18.03;;;14.60;99.90;;;;;;5259874;27;20127;-63
2021/05/31 05:19:40;;;;;;;23.00;17.00;;;14.90;99.90;;;;;;5259610;27;20158;-64
2021/05/31 05:22:07;;;;;;;25.73;17.40;;;15.50;99.90;;;;;;5260507;27;20120;-64
2021/05/31 05:24:34;;;;;;;25.73;17.23;;;15.90;99.90;;;;;;5260513;27;20124;-64
2021/05/31 05:27:05;;;;;;;25.23;16.23;;;16.50;99.90;;;;;;5259348;27;20590;-64
2021/05/31 05:29:31;;;;;;;23.37;16.87;;;17.20;99.90;;;;;;5260180;27;20425;-63
2021/05/31 05:31:59;;;;;;;21.50;15.40;;;18.10;99.90;;;;;;5260203;27;20108;-63
2021/05/31 05:34:25;;;;;;;22.03;16.20;;;18.50;98.80;;;;;;5260583;27;20148;-62
2021/05/31 05:36:55;;;;;;;26.53;16.80;;;18.30;98.80;;;;;;5262444;27;20104;-61
2021/05/31 05:39:47;;;;;;;19.13;16.00;;;17.90;98.50;;;;;;5260904;27;20107;-62
2021/05/31 05:42:28;;;;;;;22.37;14.60;;;17.80;99.00;;;;;;5259829;27;20443;-62
2021/05/31 05:47:51;;;;;;;20.60;13.60;;;18.90;96.40;;;;;;5193469;27;20525;-62
2021/05/31 05:50:19;;;;;;;19.27;15.33;;;19.80;94.10;;;;;;5193306;27;20103;-62
2021/05/31 05:52:45;;;;;;;27.97;14.83;;;19.80;94.00;;;;;;5193375;27;20109;-61
2021/05/31 05:55:13;;;;;;;18.13;13.50;;;20.30;92.90;;;;;;5195309;27;20544;-63
2021/05/31 05:57:42;;;;;;;15.67;12.63;;;21.40;91.40;;;;;;5193554;27;20164;-63
2021/05/31 06:00:10;;;;;;;22.93;14.57;;;21.50;89.70;;;;;;5194114;27;20120;-62
2021/05/31 06:02:37;;;;;;;20.73;14.13;;;20.40;90.60;;;;;;5193193;27;20127;-61
2021/05/31 06:05:04;;;;;;;17.13;12.90;;;19.40;93.00;;;;;;5193653;27;20124;-63
2021/05/31 06:07:30;;;;;;;15.67;13.30;;;18.70;93.40;;;;;;5193368;27;20255;-63
2021/05/31 06:09:57;;;;;;;17.80;13.23;;;18.20;93.70;;;;;;5193384;27;20136;-61
2021/05/31 06:12:23;;;;;;;16.00;12.23;;;17.90;94.40;;;;;;5193373;27;20205;-62
2021/05/31 06:14:51;;;;;;;15.77;13.20;;;17.60;95.00;;;;;;5193568;27;20155;-62
2021/05/31 06:17:17;;;;;;;18.13;12.87;;;17.40;95.50;;;;;;5193599;27;20136;-63
2021/05/31 06:19:44;;;;;;;16.93;12.97;;;17.30;96.30;;;;;;5193729;27;20115;-63
2021/05/31 06:22:10;;;;;;;18.37;12.67;;;17.20;96.10;;;;;;5192975;27;20437;-61
2021/05/31 06:24:37;;;;;;;20.27;12.63;;;17.10;96.60;;;;;;5256225;27;20165;-62
2021/05/31 06:27:07;;;;;;;15.70;11.47;;;17.10;96.50;;;;;;5260811;27;20448;-64
2021/05/31 06:29:33;;;;;;;17.30;11.90;;;17.40;96.40;;;;;;5260682;27;20436;-63
2021/05/31 06:32:01;;;;;;;19.47;12.60;;;17.50;95.90;;;;;;5261441;27;20161;-61
2021/05/31 06:34:27;;;;;;;19.07;12.47;;;17.40;96.10;;;;;;5261324;27;20111;-63
2021/05/31 06:36:55;;;;;;;17.87;11.63;;;17.30;96.00;;;;;;5261215;27;20140;-63
2021/05/31 06:39:22;;;;;;;16.97;9.93;;;17.20;96.10;;;;;;5259925;27;20106;-62
2021/05/31 06:41:49;;;;;;;16.13;11.23;;;17.20;96.40;;;;;;5261181;27;20124;-61
2021/05/31 06:44:15;;;;;;;16.70;11.57;;;17.30;96.50;;;;;;5261830;27;20107;-62
2021/05/31 06:46:41;;;;;;;15.63;11.03;;;17.30;96.40;;;;;;5262534;27;20122;-63
2021/05/31 06:49:09;;;;;;;16.83;10.17;;;17.30;96.80;;;;;;5260805;27;20148;-63
2021/05/31 06:51:36;;;;;;;15.33;10.87;;;17.40;97.10;;;;;;5261332;27;20108;-65
2021/05/31 06:54:03;;;;;;;14.83;10.70;;;17.60;96.30;;;;;;5261191;27;20573;-64
2021/05/31 06:56:29;;;;;;;12.37;9.53;;;17.60;96.10;;;;;;5261243;27;20107;-63
2021/05/31 06:58:55;;;;;;;12.73;9.53;;;17.70;96.10;;;;;;5262505;27;20102;-62
2021/05/31 07:01:22;;;;;;;16.97;10.37;;;17.80;95.70;;;;;;5260922;27;20108;-63
2021/05/31 07:03:48;;;;;;;14.47;9.23;;;17.90;96.30;;;;;;5261245;27;20115;-63
2021/05/31 07:06:16;;;;;;;15.63;10.17;;;18.00;95.60;;;;;;5261238;27;20227;-63
2021/05/31 07:08:42;;;;;;;13.93;9.17;;;18.90;95.10;;;;;;5261587;27;20122;-64
2021/05/31 07:11:17;;;;;;;10.70;7.87;;;19.40;93.70;;;;;;5261755;27;20512;-62
2021/05/31 07:13:45;;;;;;;11.07;7.93;;;19.80;93.40;;;;;;5261496;27;20106;-64
2021/05/31 07:16:14;;;;;;;12.10;8.20;;;20.00;93.00;;;;;;5261224;27;20138;-63
2021/05/31 07:18:41;;;;;;;13.90;8.93;;;20.10;92.70;;;;;;5260760;27;20107;-64
2021/05/31 07:21:07;;;;;;;13.33;8.57;;;20.40;91.70;;;;;;5260808;27;20127;-63
2021/05/31 07:23:37;;;;;;;10.70;7.70;;;21.20;90.40;;;;;;5261271;27;20115;-64
2021/05/31 07:26:06;;;;;;;10.17;7.00;;;21.90;89.70;;;;;;5262495;27;20194;-64
2021/05/31 07:28:36;;;;;;;13.30;8.67;;;22.10;86.40;;;;;;5256177;27;20131;-64
2021/05/31 07:31:03;;;;;;;8.40;6.47;;;22.10;84.10;;;;;;5260561;27;20126;-64
2021/05/31 07:33:29;;;;;;;10.33;7.73;;;22.50;85.10;;;;;;5260788;27;20135;-63
2021/05/31 07:35:57;;;;;;;12.80;7.97;;;23.00;83.10;;;;;;5261599;27;20108;-65
2021/05/31 07:38:23;;;;;;;13.37;8.13;;;23.20;81.60;;;;;;5262435;27;20104;-64
2021/05/31 07:40:51;;;;;;;7.83;6.00;;;24.50;79.90;;;;;;5260772;27;20149;-63
2021/05/31 07:43:18;;;;;;;9.18;5.75;;;29.10;72.40;;;;;;5261030;27;20535;-65
2021/05/31 07:45:45;;;;;;;6.40;4.00;;;36.80;52.20;;;;;;5260623;27;20111;-64
2021/05/31 07:48:11;;;;;;;4.87;3.92;;;43.00;39.90;;;;;;5260377;27;20174;-65
2021/05/31 07:50:38;;;;;;;4.40;3.58;;;47.10;34.80;;;;;;5258070;27;20123;-65
2021/05/31 07:53:06;;;;;;;5.43;3.20;;;49.90;30.80;;;;;;5261224;27;20566;-63
2021/05/31 07:55:33;;;;;;;4.50;3.55;;;52.00;29.40;;;;;;5260783;27;20107;-65
2021/05/31 07:58:08;;;;;;;5.20;3.92;;;53.50;28.40;;;;;;5261361;27;20439;-64
2021/05/31 08:00:35;;;;;;;4.28;3.37;;;54.20;27.40;;;;;;5260845;27;20134;-65
2021/05/31 08:03:02;;;;;;;7.10;3.28;;;54.90;27.30;;;;;;5262160;27;20111;-64
2021/05/31 08:05:28;;;;;;;10.10;4.18;;;55.50;26.70;;;;;;5261139;27;20107;-65
2021/05/31 08:07:55;;;;;;;5.07;2.75;;;55.60;26.50;;;;;;5261190;27;20107;-64
2021/05/31 08:10:24;;;;;;;4.35;2.87;;;56.00;26.30;;;;;;5260755;27;20531;-67
2021/05/31 08:12:50;;;;;;;4.95;3.25;;;56.30;26.20;;;;;;5260749;27;20189;-65
2021/05/31 08:15:19;;;;;;;6.28;3.50;;;56.40;25.90;;;;;;5262521;27;20108;-65
2021/05/31 08:17:45;;;;;;;4.05;3.12;;;56.20;25.50;;;;;;5263306;27;20156;-65
2021/05/31 08:20:13;;;;;;;3.95;3.20;;;55.40;25.80;;;;;;5260364;27;20122;-67
2021/05/31 08:22:45;;;;;;;6.25;3.50;;;55.10;25.80;;;;;;5260437;27;20130;-64
2021/05/31 08:25:13;;;;;;;5.60;4.00;;;54.20;26.00;;;;;;5261168;27;20540;-65
2021/05/31 08:27:40;;;;;;;5.15;3.45;;;50.40;26.80;;;;;;5259234;27;20729;-64
2021/05/31 08:30:07;;;;;;;5.37;3.55;;;44.80;28.30;;;;;;5260441;27;20153;-65
2021/05/31 08:32:35;;;;;;;6.85;3.78;;;40.50;29.40;;;;;;5260486;27;20107;-64
2021/05/31 08:35:02;;;;;;;5.18;4.15;;;36.70;31.10;;;;;;5261537;27;20130;-64
2021/05/31 08:37:28;;;;;;;5.15;3.42;;;34.00;32.80;;;;;;5262486;27;20166;-64
2021/05/31 08:39:55;;;;;;;7.90;3.92;;;31.90;35.10;;;;;;5260128;27;20155;-63
2021/05/31 08:42:22;;;;;;;4.62;3.75;;;30.70;36.90;;;;;;5260542;27;20516;-65
2021/05/31 08:44:48;;;;;;;5.55;3.72;;;29.80;36.40;;;;;;5260485;27;20107;-66
2021/05/31 08:47:15;;;;;;;8.88;4.37;;;28.90;36.90;;;;;;5260959;27;20127;-64
2021/05/31 08:49:44;;;;;;;5.37;3.90;;;27.90;38.00;;;;;;5260572;27;20111;-65
2021/05/31 08:52:10;;;;;;;5.40;3.35;;;27.40;39.80;;;;;;5261278;27;20153;-65
2021/05/31 08:54:36;;;;;;;5.45;3.92;;;27.10;41.20;;;;;;5260604;27;20122;-64
2021/05/31 08:57:03;;;;;;;6.28;3.45;;;27.00;40.20;;;;;;5260175;27;20114;-64
2021/05/31 08:59:29;;;;;;;4.50;3.22;;;26.90;40.50;;;;;;5262531;27;20118;-65
2021/05/31 09:01:56;;;;;;;6.50;3.67;;;27.00;41.50;;;;;;5260235;27;20115;-65
2021/05/31 09:04:24;;;;;;;8.43;4.10;;;26.80;40.20;;;;;;5260265;27;20138;-65
2021/05/31 09:06:55;;;;;;;7.15;3.67;;;26.70;40.00;;;;;;5260290;27;20146;-64
2021/05/31 09:09:36;;;;;;;7.35;3.95;;;26.40;41.00;;;;;;5260384;27;20107;-64
2021/05/31 09:12:06;;;;;;;6.15;3.60;;;26.30;41.30;;;;;;5262454;27;20170;-64
2021/05/31 09:14:32;;;;;;;7.18;3.20;;;26.20;41.60;;;;;;5260626;27;20524;-62
2021/05/31 09:16:58;;;;;;;4.97;3.22;;;26.20;40.50;;;;;;5262515;27;20456;-64
2021/05/31 09:19:25;;;;;;;4.97;2.87;;;26.20;39.60;;;;;;5260410;27;20145;-66
2021/05/31 09:21:51;;;;;;;4.35;3.35;;;26.00;39.30;;;;;;5260150;27;20127;-66
2021/05/31 09:24:23;;;;;;;4.50;3.67;;;26.10;40.50;;;;;;5260901;27;20111;-65
2021/05/31 09:26:52;;;;;;;3.80;2.60;;;25.90;40.00;;;;;;5260496;27;20129;-65
2021/05/31 09:29:20;;;;;;;3.33;2.20;;;25.90;39.30;;;;;;5221278;27;20120;-66
2021/05/31 09:31:58;;;;;;;4.32;2.83;;;25.90;37.80;;;;;;5218558;27;20115;-66
2021/05/31 09:34:25;;;;;;;5.53;3.05;;;25.90;38.20;;;;;;5217324;27;20134;-67
2021/05/31 09:36:53;;;;;;;6.18;3.62;;;25.80;40.80;;;;;;5217318;27;20107;-67
2021/05/31 09:39:29;;;;;;;8.52;3.97;;;25.70;40.70;;;;;;5218367;27;20107;-67
2021/05/31 09:42:02;;;;;;;4.03;3.35;;;25.60;41.20;;;;;;5219209;27;20432;-66
2021/05/31 09:44:29;;;;;;;4.85;3.35;;;25.70;40.30;;;;;;5217538;27;20150;-67
2021/05/31 09:46:55;;;;;;;5.15;3.67;;;25.60;41.50;;;;;;5218132;27;20104;-65
2021/05/31 09:49:26;;;;;;;7.50;4.12;;;25.60;41.90;;;;;;5217161;27;20166;-66
2021/05/31 09:51:55;;;;;;;7.22;4.28;;;25.70;42.10;;;;;;5216066;27;20230;-67
2021/05/31 09:54:34;;;;;;;8.27;4.47;;;25.70;42.50;;;;;;5215782;27;20138;-66
2021/05/31 09:57:13;;;;;;;6.80;4.80;;;25.60;43.20;;;;;;5215134;27;20185;-66
2021/05/31 09:59:41;;;;;;;10.10;4.83;;;25.60;44.20;;;;;;5217161;27;20119;-70
2021/05/31 10:02:11;;;;;;;7.50;4.62;;;25.50;47.20;;;;;;5217635;27;20138;-65
2021/05/31 10:05:01;;;;;;;9.30;4.70;;;25.20;45.20;;;;;;5220713;27;20108;-67
2021/05/31 10:07:39;;;;;;;9.82;4.95;;;25.00;47.50;;;;;;5218635;27;20135;-65
2021/05/31 10:10:08;;;;;;;5.00;4.00;;;25.00;48.00;;;;;;5218411;27;20112;-66
2021/05/31 10:12:35;;;;;;;8.27;5.18;;;25.20;47.80;;;;;;5216588;27;20123;-65
2021/05/31 10:15:02;;;;;;;9.82;5.87;;;25.50;47.80;;;;;;5218135;27;20115;-70
2021/05/31 10:17:32;;;;;;;11.38;7.50;;;25.30;49.50;;;;;;5218034;27;20118;-67
2021/05/31 10:20:06;;;;;;;9.05;5.70;;;24.80;48.00;;;;;;5218293;27;20119;-65
2021/05/31 10:22:38;;;;;;;8.48;6.87;;;24.90;49.90;;;;;;5218392;27;20115;-69
2021/05/31 10:25:09;;;;;;;9.73;6.50;;;25.20;48.10;;;;;;5218386;27;20126;-65
2021/05/31 10:27:36;;;;;;;11.82;7.20;;;25.00;48.30;;;;;;5230980;27;20176;-66
2021/05/31 10:30:06;;;;;;;9.10;6.78;;;24.90;48.00;;;;;;5261113;27;20119;-63
2021/05/31 10:32:32;;;;;;;10.63;6.18;;;24.80;49.80;;;;;;5262027;27;20141;-63
2021/05/31 10:34:59;;;;;;;7.72;6.85;;;25.00;48.10;;;;;;5261585;27;20107;-63
2021/05/31 10:37:27;;;;;;;10.02;6.65;;;24.90;49.50;;;;;;5262178;27;20118;-64
2021/05/31 10:40:07;;;;;;;10.18;5.90;;;24.60;50.20;;;;;;5261341;27;20123;-63
2021/05/31 10:42:43;;;;;;;7.22;6.37;;;24.50;52.10;;;;;;5263094;27;20107;-63
2021/05/31 10:45:25;;;;;;;8.70;6.43;;;24.70;53.00;;;;;;5262064;27;20156;-65
2021/05/31 10:48:02;;;;;;;12.47;6.10;;;24.80;50.60;;;;;;5261117;27;20103;-64
2021/05/31 10:50:30;;;;;;;8.98;6.93;;;24.70;51.50;;;;;;5261222;27;20099;-62
2021/05/31 10:52:56;;;;;;;6.93;6.15;;;24.60;51.40;;;;;;5261364;27;20173;-64
2021/05/31 10:55:25;;;;;;;12.48;6.80;;;24.80;52.60;;;;;;5260844;27;20508;-64
2021/05/31 10:57:54;;;;;;;7.05;6.10;;;24.90;53.30;;;;;;5261914;27;20107;-65
2021/05/31 11:00:26;;;;;;;7.30;5.55;;;25.10;53.50;;;;;;5261533;27;20571;-63
2021/05/31 11:03:06;;;;;;;9.10;5.85;;;25.40;53.30;;;;;;5262082;27;20122;-63
2021/05/31 11:05:35;;;;;;;9.63;6.40;;;25.80;52.40;;;;;;5262277;27;20152;-65
2021/05/31 11:08:01;;;;;;;11.27;7.07;;;26.40;52.30;;;;;;5262882;27;20140;-64
2021/05/31 11:10:32;;;;;;;10.40;8.07;;;26.10;49.60;;;;;;5260707;27;20107;-67
2021/05/31 11:13:15;;;;;;;9.77;7.07;;;25.60;50.50;;;;;;5260532;27;20115;-64
2021/05/31 11:15:42;;;;;;;6.20;5.55;;;25.20;51.90;;;;;;5261259;27;20150;-63
2021/05/31 11:18:09;;;;;;;10.00;5.40;;;25.10;51.40;;;;;;5261006;27;20123;-64
2021/05/31 11:20:40;;;;;;;9.57;5.80;;;25.30;50.50;;;;;;5262035;27;20124;-64
2021/05/31 11:23:06;;;;;;;9.20;4.93;;;25.40;49.60;;;;;;5262688;27;20104;-66
2021/05/31 11:25:33;;;;;;;7.53;5.50;;;25.80;49.60;;;;;;5261128;27;20122;-66
2021/05/31 11:28:02;;;;;;;12.20;6.28;;;26.40;50.00;;;;;;5261674;27;20142;-64
2021/05/31 11:30:32;;;;;;;9.23;6.70;;;26.90;49.40;;;;;;5261067;27;20157;-64
2021/05/31 11:33:00;;;;;;;14.00;6.70;;;26.90;48.30;;;;;;5260677;27;20117;-66
2021/05/31 11:35:27;;;;;;;11.23;7.37;;;26.30;47.40;;;;;;5261154;27;20147;-65
2021/05/31 11:37:55;;;;;;;8.70;5.72;;;25.40;48.00;;;;;;5260912;27;20178;-63
2021/05/31 11:40:24;;;;;;;8.88;6.00;;;25.30;49.40;;;;;;5261104;27;20430;-64
2021/05/31 11:42:53;;;;;;;8.85;5.28;;;25.10;49.60;;;;;;5260915;27;20139;-65
2021/05/31 11:45:21;;;;;;;7.93;5.43;;;24.70;49.70;;;;;;5260878;27;20112;-64
2021/05/31 11:47:55;;;;;;;5.37;4.45;;;24.50;51.10;;;;;;5261002;27;20110;-67
2021/05/31 11:50:23;;;;;;;8.45;5.40;;;24.30;49.40;;;;;;5260266;27;20432;-65
2021/05/31 11:52:52;;;;;;;13.32;5.75;;;24.00;49.80;;;;;;5263056;27;20107;-64
2021/05/31 11:55:23;;;;;;;8.55;5.43;;;23.90;51.30;;;;;;5261023;27;20112;-67
2021/05/31 11:57:50;;;;;;;10.93;5.75;;;24.00;52.00;;;;;;5260968;27;20141;-61
2021/05/31 12:00:19;;;;;;;7.85;5.35;;;24.10;49.70;;;;;;5260856;27;20107;-63
2021/05/31 12:02:46;;;;;;;5.72;4.82;;;24.30;50.80;;;;;;5261032;27;20122;-63
2021/05/31 12:05:15;;;;;;;5.07;4.43;;;24.60;49.50;;;;;;5261185;27;20531;-63
2021/05/31 12:07:44;;;;;;;6.03;4.62;;;24.80;48.90;;;;;;5260992;27;20111;-63
2021/05/31 12:10:12;;;;;;;7.95;4.60;;;24.60;48.20;;;;;;5260754;27;20165;-63
2021/05/31 12:12:40;;;;;;;5.93;4.35;;;24.20;49.60;;;;;;5260038;27;20134;-68
2021/05/31 12:15:13;;;;;;;9.00;4.90;;;24.20;48.70;;;;;;5261121;27;20131;-65
2021/05/31 12:17:40;;;;;;;4.87;3.97;;;24.10;49.40;;;;;;5254055;27;20138;-65
2021/05/31 12:20:08;;;;;;;8.80;4.75;;;24.30;49.30;;;;;;5261207;27;20146;-64
2021/05/31 12:22:38;;;;;;;10.20;4.95;;;24.40;50.20;;;;;;5199686;27;1678151;-67
2021/05/31 12:25:10;;;;;;;5.25;4.28;;;24.60;50.20;;;;;;5260261;27;20538;-66
2021/05/31 12:27:40;;;;;;;8.43;4.62;;;24.70;50.40;;;;;;5260658;27;20148;-64
2021/05/31 12:30:08;;;;;;;9.10;5.00;;;24.80;52.70;;;;;;5260178;27;20111;-68
2021/05/31 12:32:36;;;;;;;5.32;4.22;;;24.90;51.90;;;;;;5260929;27;20123;-66
2021/05/31 12:35:04;;;;;;;12.02;4.97;;;25.00;51.80;;;;;;5261683;27;20145;-67
2021/05/31 12:37:32;;;;;;;7.07;5.20;;;24.90;50.40;;;;;;5260727;27;20172;-64
2021/05/31 12:40:05;;;;;;;8.07;4.30;;;24.80;48.80;;;;;;5259322;27;20107;-65
2021/05/31 12:42:35;;;;;;;5.25;4.35;;;24.70;50.90;;;;;;5259939;27;20423;-65
2021/05/31 12:45:05;;;;;;;5.85;4.70;;;24.70;48.90;;;;;;5259390;27;20154;-66
2021/05/31 12:47:35;;;;;;;7.18;4.68;;;24.70;49.00;;;;;;5259161;27;20119;-65
2021/05/31 12:50:03;;;;;;;7.47;5.05;;;24.80;50.50;;;;;;5258503;27;20135;-65